Lajeado, Brazil
Current Conditions -  °F | °C
As of 3:00 PM on Wednesday 28 Jan 2015 (Local Time) from SBPJ Reporting Station
Scattered Clouds Scattered Clouds  
Wind Chill: 91°   Ceiling: Unl
Heat Index: 97°   Visibility: 6mi
Dew Point: 70°   Wind: 6mph
Humidity: 49%   Direction: 190°S
Pressure: 29.83"   Gusts: NA
Location:  9.75°S, 48.36°W
Report Text: SBPJ 281800Z 19005KT 9999 SCT025 FEW030TCU 33/21 Q1010
Loading
Personal Weather Stations






























Interactive Weather Map New forecast layout! Learn more

10-Day Weather Forecast

Advertisements
Track Severe Weather on mobile